createdAt,value
2022-08-18T00:00:22.542Z,99916.03
2022-08-18T00:05:25.866Z,99916.88
2022-08-18T00:10:28.924Z,99915.59
2022-08-18T00:15:32.767Z,99920.69
2022-08-18T00:20:44.378Z,99916.94
2022-08-18T00:25:49.935Z,99925.75
2022-08-18T00:30:54.404Z,99921.13
2022-08-18T00:35:57.338Z,99926.41
2022-08-18T00:40:59.830Z,99929.28
2022-08-18T00:46:08.871Z,99920.50
2022-08-18T00:51:14.222Z,99914.59
2022-08-18T00:56:22.380Z,99915.81
2022-08-18T01:01:29.833Z,99913.41
2022-08-18T01:06:39.335Z,99911.38
2022-08-18T01:11:41.816Z,99909.13
2022-08-18T01:17:03.860Z,99903.66
2022-08-18T01:22:12.591Z,99905.44
2022-08-18T01:27:19.553Z,99903.00
2022-08-18T01:32:24.452Z,99896.22
2022-08-18T01:37:27.001Z,99903.25
2022-08-18T01:42:31.074Z,99886.69
2022-08-18T01:47:48.261Z,99903.72
2022-08-18T01:52:57.593Z,99899.41
2022-08-18T01:58:01.421Z,99895.53
2022-08-18T02:03:08.261Z,99891.34
2022-08-18T02:08:12.592Z,99895.00
2022-08-18T02:13:16.717Z,99893.84
2022-08-18T02:18:47.056Z,99893.66
2022-08-18T02:23:53.042Z,99899.03
2022-08-18T02:28:57.924Z,99904.19
2022-08-18T02:34:00.582Z,99901.06
2022-08-18T02:39:03.174Z,99892.59
2022-08-18T02:44:09.378Z,99912.25
2022-08-18T02:49:12.772Z,99910.38
2022-08-18T02:54:15.383Z,99903.41
2022-08-18T02:59:24.169Z,99905.03
2022-08-18T03:04:30.200Z,99905.22
2022-08-18T03:09:34.373Z,99912.66
2022-08-18T03:14:40.041Z,99898.69
2022-08-18T03:19:46.817Z,99893.94
2022-08-18T03:24:50.311Z,99893.38
2022-08-18T03:29:54.100Z,99899.25
2022-08-18T03:34:56.571Z,99902.22
2022-08-18T03:39:59.104Z,99896.09
2022-08-18T03:45:12.499Z,99896.00
2022-08-18T03:50:21.528Z,99901.66
2022-08-18T03:55:24.184Z,99905.19
2022-08-18T04:00:28.237Z,99907.13
2022-08-18T04:05:32.253Z,99906.41
2022-08-18T04:10:36.395Z,99906.91
2022-08-18T04:15:40.487Z,99910.94
2022-08-18T04:20:59.239Z,99909.84
2022-08-18T04:26:03.477Z,99911.53
2022-08-18T04:31:18.120Z,99928.53
2022-08-18T04:36:21.047Z,99937.78
2022-08-18T04:41:26.966Z,99950.13
2022-08-18T04:46:32.119Z,99952.03
2022-08-18T04:52:36.137Z,99963.50
2022-08-18T04:56:57.259Z,99953.00
2022-08-18T05:02:05.761Z,99954.84
2022-08-18T05:07:11.726Z,99953.97
2022-08-18T05:12:16.397Z,99956.00
2022-08-18T05:17:20.242Z,99963.84
2022-08-18T05:22:28.567Z,99966.06
2022-08-18T05:27:35.120Z,99963.31
2022-08-18T05:32:48.716Z,99979.06
2022-08-18T05:38:13.970Z,99977.34
2022-08-18T05:43:18.126Z,99977.97
2022-08-18T05:48:22.164Z,99972.44
2022-08-18T05:53:45.007Z,99977.38
2022-08-18T05:58:51.906Z,99969.25
2022-08-18T06:04:02.035Z,99972.16
2022-08-18T06:09:13.818Z,99970.59
2022-08-18T06:14:16.483Z,99984.72
2022-08-18T06:19:30.797Z,99993.81
2022-08-18T06:24:39.013Z,99991.94
2022-08-18T06:29:54.215Z,100001.56
2022-08-18T06:35:11.715Z,99994.13
2022-08-18T06:40:14.461Z,100007.09
2022-08-18T06:45:18.608Z,100019.09
2022-08-18T06:50:27.487Z,100021.84
2022-08-18T06:55:36.131Z,100028.16
2022-08-18T07:00:43.220Z,100031.19
2022-08-18T07:06:01.577Z,100041.78
2022-08-18T07:11:14.167Z,100045.38
2022-08-18T07:16:30.158Z,100050.53
2022-08-18T07:21:43.515Z,100050.59
2022-08-18T07:27:00.565Z,100050.34
2022-08-18T07:32:12.619Z,100034.88
2022-08-18T07:37:30.782Z,100038.34
2022-08-18T07:42:56.780Z,100062.41
2022-08-18T07:48:27.366Z,100066.28
2022-08-18T07:53:54.686Z,100048.19
2022-08-18T07:59:04.624Z,100063.63
2022-08-18T08:04:25.369Z,100065.34
2022-08-18T08:09:38.083Z,100054.88
2022-08-18T08:14:43.448Z,100066.13
2022-08-18T08:20:03.661Z,100056.78
2022-08-18T08:25:44.429Z,100059.13
2022-08-18T08:30:47.445Z,100052.66
2022-08-18T08:35:55.729Z,100076.19
2022-08-18T08:41:04.226Z,100079.16
2022-08-18T08:46:12.616Z,100067.38
2022-08-18T08:51:30.410Z,100061.63
2022-08-18T08:56:41.266Z,100073.16
2022-08-18T09:01:52.888Z,100071.81
2022-08-18T09:07:09.697Z,100073.84
2022-08-18T09:12:44.767Z,100046.31
2022-08-18T09:18:14.922Z,100037.13
2022-08-18T09:23:21.131Z,100050.06
2022-08-18T09:28:53.491Z,100046.06
2022-08-18T09:34:35.225Z,100042.50
2022-08-18T09:39:57.849Z,100060.41
2022-08-18T09:45:09.383Z,100067.53
2022-08-18T09:50:38.644Z,100071.97
2022-08-18T09:56:01.679Z,100083.31
2022-08-18T10:01:23.694Z,100088.09
2022-08-18T10:06:28.725Z,100089.97
2022-08-18T10:11:57.670Z,100100.31
2022-08-18T10:17:21.434Z,100103.03
2022-08-18T10:22:41.374Z,100108.44
2022-08-18T10:27:54.702Z,100101.00
2022-08-18T10:32:59.047Z,100090.94
2022-08-18T10:38:03.862Z,100077.31
2022-08-18T10:48:35.279Z,100057.28
2022-08-18T10:53:49.616Z,100056.19
2022-08-18T10:59:16.196Z,100050.91
2022-08-18T11:10:04.423Z,100056.19
2022-08-18T11:15:23.633Z,100056.09
2022-08-18T11:20:32.258Z,100051.19
2022-08-18T11:25:39.908Z,100045.88
2022-08-18T11:30:46.385Z,100044.50
2022-08-18T11:35:54.472Z,100033.47
2022-08-18T11:41:13.598Z,100038.88
2022-08-18T11:46:29.954Z,100055.34
2022-08-18T11:51:35.301Z,100066.56
2022-08-18T11:56:38.733Z,100076.69
2022-08-18T12:01:51.391Z,100071.56
2022-08-18T12:07:01.775Z,100066.81
2022-08-18T12:12:16.037Z,100083.72
2022-08-18T12:17:21.088Z,100089.41
2022-08-18T12:22:27.990Z,100084.53
2022-08-18T12:27:32.352Z,100093.72
2022-08-18T12:32:46.878Z,100093.50
2022-08-18T12:38:00.494Z,100088.25
2022-08-18T12:43:07.729Z,100074.28
2022-08-18T12:48:10.485Z,100081.19
2022-08-18T12:53:14.499Z,100066.91
2022-08-18T12:58:17.064Z,100050.94
2022-08-18T13:03:20.169Z,100011.00
2022-08-18T13:08:27.623Z,100014.28
2022-08-18T13:13:33.425Z,100024.34
2022-08-18T13:18:36.248Z,100010.75
2022-08-18T13:23:41.482Z,100017.34
2022-08-18T13:28:49.964Z,100013.38
2022-08-18T13:34:03.846Z,100003.34
2022-08-18T13:39:08.848Z,99993.03
2022-08-18T13:44:18.764Z,99993.75
2022-08-18T13:49:30.367Z,99993.63
2022-08-18T13:54:36.047Z,99987.34
2022-08-18T13:59:38.902Z,99981.91
2022-08-18T14:04:49.447Z,99979.09
2022-08-18T14:09:55.851Z,99942.84
2022-08-18T14:14:58.627Z,99930.88
2022-08-18T14:20:21.764Z,99934.91
2022-08-18T14:25:45.740Z,99934.28
2022-08-18T14:30:50.859Z,99931.13
2022-08-18T14:36:05.756Z,99923.97
2022-08-18T14:41:14.794Z,99901.63
2022-08-18T14:46:17.312Z,99904.00
2022-08-18T14:51:19.834Z,99889.56
2022-08-18T14:56:33.475Z,99875.97
2022-08-18T15:01:42.555Z,99874.84
2022-08-18T15:06:45.631Z,99878.06
2022-08-18T15:12:01.347Z,99862.38
2022-08-18T15:17:11.754Z,99861.13
2022-08-18T15:22:33.493Z,99861.94
2022-08-18T15:27:43.405Z,99865.00
2022-08-18T15:32:47.392Z,99876.69
2022-08-18T15:37:53.388Z,99874.19
2022-08-18T15:43:01.446Z,99872.50
2022-08-18T15:48:04.771Z,99873.75
2022-08-18T15:53:07.973Z,99872.88
2022-08-18T15:58:13.879Z,99873.81
2022-08-18T16:03:21.463Z,99869.84
2022-08-18T16:08:25.586Z,99871.84
2022-08-18T16:13:29.817Z,99869.44
2022-08-18T16:18:32.488Z,99864.63
2022-08-18T16:23:34.945Z,99860.66
2022-08-18T16:28:41.733Z,99863.47
2022-08-18T16:33:44.533Z,99846.28
2022-08-18T16:38:47.490Z,99847.16
2022-08-18T16:43:57.103Z,99840.69
2022-08-18T16:48:59.946Z,99849.56
2022-08-18T16:54:02.461Z,99847.53
2022-08-18T16:59:24.143Z,99838.50
2022-08-18T17:04:29.006Z,99839.69
2022-08-18T17:09:33.072Z,99845.28
2022-08-18T17:14:37.312Z,99838.53
2022-08-18T17:19:39.864Z,99832.13
2022-08-18T17:24:45.135Z,99834.13
2022-08-18T17:30:00.464Z,99838.53
2022-08-18T17:35:08.233Z,99842.50
2022-08-18T17:40:18.561Z,99842.50
2022-08-18T17:45:22.966Z,99849.28
2022-08-18T17:50:47.304Z,99852.88
2022-08-18T17:55:59.632Z,99870.47
2022-08-18T18:01:04.197Z,99872.84
2022-08-18T18:06:11.798Z,99878.03
2022-08-18T18:11:14.723Z,99896.00
2022-08-18T18:16:25.668Z,99901.59
2022-08-18T18:21:57.535Z,99892.22
2022-08-18T18:26:52.103Z,99898.47
2022-08-18T18:32:02.948Z,99902.22
2022-08-18T18:37:06.433Z,99906.72
2022-08-18T18:42:15.603Z,99912.69
2022-08-18T18:47:34.882Z,99911.03
2022-08-18T18:52:47.928Z,99909.44
2022-08-18T18:57:57.446Z,99906.59
2022-08-18T19:03:11.410Z,99908.47
2022-08-18T19:08:27.290Z,99905.34
2022-08-18T19:13:34.922Z,99910.84
2022-08-18T19:18:44.041Z,99912.31
2022-08-18T19:24:05.227Z,99925.13
2022-08-18T19:29:14.237Z,99920.41
2022-08-18T19:34:30.070Z,99917.91
2022-08-18T19:39:40.237Z,99925.97
2022-08-18T19:45:13.007Z,99923.94
2022-08-18T19:50:18.211Z,99954.00
2022-08-18T19:55:33.359Z,99968.22
2022-08-18T20:00:45.441Z,99974.69
2022-08-18T20:06:33.352Z,99959.69
2022-08-18T20:11:41.707Z,99951.38
2022-08-18T20:17:19.247Z,99951.91
2022-08-18T20:22:43.167Z,99973.03
2022-08-18T20:27:49.990Z,99970.59
2022-08-18T20:33:16.599Z,99957.84
2022-08-18T20:38:29.063Z,99937.63
2022-08-18T20:43:34.464Z,99931.53
2022-08-18T20:48:51.749Z,99925.44
2022-08-18T20:54:13.743Z,99911.06
2022-08-18T20:59:20.228Z,99909.94
2022-08-18T21:04:41.230Z,99898.41
2022-08-18T21:09:52.513Z,99894.16
2022-08-18T21:14:56.431Z,99907.84
2022-08-18T21:19:59.874Z,99911.09
2022-08-18T21:25:04.105Z,99905.09
2022-08-18T21:30:16.434Z,99925.66
2022-08-18T21:35:24.682Z,99927.97
2022-08-18T21:40:39.342Z,99931.19
2022-08-18T21:45:47.747Z,99922.63
2022-08-18T21:50:53.222Z,99905.56
2022-08-18T21:55:58.048Z,99905.88
2022-08-18T22:01:20.120Z,99900.47
2022-08-18T22:06:36.130Z,99895.69
2022-08-18T22:12:02.186Z,99917.22
2022-08-18T22:17:25.144Z,99911.66
2022-08-18T22:22:49.015Z,99902.16
2022-08-18T22:27:53.542Z,99909.91
2022-08-18T22:32:56.071Z,99917.94
2022-08-18T22:38:00.660Z,99899.75
2022-08-18T22:43:05.023Z,99899.59
2022-08-18T22:48:08.538Z,99907.06
2022-08-18T22:53:11.090Z,99913.84
2022-08-18T22:58:17.593Z,99919.00
2022-08-18T23:03:28.241Z,99915.28
2022-08-18T23:08:54.999Z,99914.06
2022-08-18T23:13:57.196Z,99929.63
2022-08-18T23:19:02.097Z,99939.31
2022-08-18T23:24:05.820Z,99932.69
2022-08-18T23:29:11.542Z,99923.44
2022-08-18T23:34:17.178Z,99921.19
2022-08-18T23:39:19.663Z,99919.28
2022-08-18T23:44:27.372Z,99919.56
2022-08-18T23:49:31.609Z,99912.88
2022-08-18T23:54:35.892Z,99901.94
2022-08-18T23:59:39.689Z,99901.44
